sensor_id;sensor_type;location;lat;lon;timestamp;pressure;altitude;pressure_sealevel;temperature;humidity
7022;BME280;3552;42.664;23.406;2022-12-07T00:01:09;51749.59;;;-141.28;100.00
7022;BME280;3552;42.664;23.406;2022-12-07T00:03:38;51771.19;;;-141.28;100.00
7022;BME280;3552;42.664;23.406;2022-12-07T00:06:07;51731.94;;;-141.28;100.00
7022;BME280;3552;42.664;23.406;2022-12-07T00:08:34;51696.59;;;-141.28;100.00
7022;BME280;3552;42.664;23.406;2022-12-07T00:11:02;51527.72;;;-141.28;100.00
7022;BME280;3552;42.664;23.406;2022-12-07T00:13:29;51753.53;;;-141.28;100.00
7022;BME280;3552;42.664;23.406;2022-12-07T00:16:00;51692.66;;;-141.28;100.00
7022;BME280;3552;42.664;23.406;2022-12-07T00:18:29;51700.50;;;-141.28;100.00
7022;BME280;3552;42.664;23.406;2022-12-07T00:20:59;51724.06;;;-141.28;100.00
7022;BME280;3552;42.664;23.406;2022-12-07T00:23:27;51714.25;;;-141.28;100.00
7022;BME280;3552;42.664;23.406;2022-12-07T00:25:54;51676.94;;;-141.28;100.00
7022;BME280;3552;42.664;23.406;2022-12-07T00:28:21;51708.38;;;-141.28;100.00
7022;BME280;3552;42.664;23.406;2022-12-07T00:30:48;51570.91;;;-141.28;100.00
7022;BME280;3552;42.664;23.406;2022-12-07T00:33:15;51865.47;;;-141.28;100.00
7022;BME280;3552;42.664;23.406;2022-12-07T00:35:56;51908.66;;;-141.28;100.00
7022;BME280;3552;42.664;23.406;2022-12-07T00:38:29;51959.72;;;-141.28;100.00
7022;BME280;3552;42.664;23.406;2022-12-07T00:41:00;51857.59;;;-141.28;100.00
7022;BME280;3552;42.664;23.406;2022-12-07T00:43:34;52160.03;;;-141.28;100.00
7022;BME280;3552;42.664;23.406;2022-12-07T00:46:05;52006.84;;;-141.28;100.00
7022;BME280;3552;42.664;23.406;2022-12-07T00:48:59;51837.97;;;-141.28;100.00
7022;BME280;3552;42.664;23.406;2022-12-07T00:51:58;51614.13;;;-141.28;100.00
7022;BME280;3552;42.664;23.406;2022-12-07T00:54:42;51296.03;;;-141.28;100.00
7022;BME280;3552;42.664;23.406;2022-12-07T01:00:13;51435.44;;;-141.28;100.00
7022;BME280;3552;42.664;23.406;2022-12-07T01:02:47;51437.41;;;-141.28;100.00
7022;BME280;3552;42.664;23.406;2022-12-07T01:05:39;51298.00;;;-141.28;100.00
7022;BME280;3552;42.664;23.406;2022-12-07T01:08:28;51246.97;;;-141.28;100.00
7022;BME280;3552;42.664;23.406;2022-12-07T01:10:59;51256.78;;;-141.28;100.00
7022;BME280;3552;42.664;23.406;2022-12-07T01:13:34;51296.03;;;-141.28;100.00
7022;BME280;3552;42.664;23.406;2022-12-07T01:16:30;51250.88;;;-141.28;100.00
7022;BME280;3552;42.664;23.406;2022-12-07T01:19:20;51162.53;;;-141.28;100.00
7022;BME280;3552;42.664;23.406;2022-12-07T01:21:51;51235.19;;;-141.28;100.00
7022;BME280;3552;42.664;23.406;2022-12-07T01:24:45;51178.25;;;-141.28;100.00
7022;BME280;3552;42.664;23.406;2022-12-07T01:27:16;51095.78;;;-141.28;100.00
7022;BME280;3552;42.664;23.406;2022-12-07T01:29:49;51280.34;;;-141.28;100.00
7022;BME280;3552;42.664;23.406;2022-12-07T01:32:20;51311.75;;;-141.28;100.00
7022;BME280;3552;42.664;23.406;2022-12-07T01:34:50;51372.59;;;-141.28;100.00
7022;BME280;3552;42.664;23.406;2022-12-07T01:37:18;51386.34;;;-141.28;100.00
7022;BME280;3552;42.664;23.406;2022-12-07T01:39:56;51445.25;;;-141.28;100.00
7022;BME280;3552;42.664;23.406;2022-12-07T01:42:34;51311.75;;;-141.28;100.00
7022;BME280;3552;42.664;23.406;2022-12-07T01:45:34;51241.06;;;-141.28;100.00
7022;BME280;3552;42.664;23.406;2022-12-07T01:48:07;51160.56;;;-141.28;100.00
7022;BME280;3552;42.664;23.406;2022-12-07T01:50:38;51217.50;;;-141.28;100.00
7022;BME280;3552;42.664;23.406;2022-12-07T01:53:09;51233.22;;;-141.28;100.00
7022;BME280;3552;42.664;23.406;2022-12-07T01:55:42;51225.34;;;-141.28;100.00
7022;BME280;3552;42.664;23.406;2022-12-07T01:58:14;51205.72;;;-141.28;100.00
7022;BME280;3552;42.664;23.406;2022-12-07T02:00:51;51162.53;;;-141.28;100.00
7022;BME280;3552;42.664;23.406;2022-12-07T02:03:24;51158.59;;;-141.28;100.00
7022;BME280;3552;42.664;23.406;2022-12-07T02:05:54;51142.91;;;-141.28;100.00
7022;BME280;3552;42.664;23.406;2022-12-07T02:08:23;51154.69;;;-141.28;100.00
7022;BME280;3552;42.664;23.406;2022-12-07T02:10:54;51138.97;;;-141.28;100.00
7022;BME280;3552;42.664;23.406;2022-12-07T02:13:23;51068.28;;;-141.28;100.00
7022;BME280;3552;42.664;23.406;2022-12-07T02:16:02;51072.22;;;-141.28;100.00
7022;BME280;3552;42.664;23.406;2022-12-07T02:18:42;51060.44;;;-141.28;100.00
7022;BME280;3552;42.664;23.406;2022-12-07T02:21:17;51005.47;;;-141.28;100.00
7022;BME280;3552;42.664;23.406;2022-12-07T02:24:15;50862.16;;;-141.28;100.00
7022;BME280;3552;42.664;23.406;2022-12-07T02:27:01;50848.44;;;-141.28;100.00
7022;BME280;3552;42.664;23.406;2022-12-07T02:29:37;50820.94;;;-141.28;100.00
7022;BME280;3552;42.664;23.406;2022-12-07T02:32:10;50701.19;;;-141.28;100.00
7022;BME280;3552;42.664;23.406;2022-12-07T02:34:43;50875.91;;;-141.28;100.00
7022;BME280;3552;42.664;23.406;2022-12-07T02:37:19;50930.88;;;-141.28;100.00
7022;BME280;3552;42.664;23.406;2022-12-07T02:39:53;50936.75;;;-141.28;100.00
7022;BME280;3552;42.664;23.406;2022-12-07T02:42:25;50942.66;;;-141.28;100.00
7022;BME280;3552;42.664;23.406;2022-12-07T02:44:56;50926.94;;;-141.28;100.00
7022;BME280;3552;42.664;23.406;2022-12-07T02:47:25;50824.88;;;-141.28;100.00
7022;BME280;3552;42.664;23.406;2022-12-07T02:49:52;50930.88;;;-141.28;100.00
7022;BME280;3552;42.664;23.406;2022-12-07T02:52:20;51036.88;;;-141.28;100.00
7022;BME280;3552;42.664;23.406;2022-12-07T02:54:46;51085.97;;;-141.28;100.00
7022;BME280;3552;42.664;23.406;2022-12-07T02:57:25;51127.19;;;-141.28;100.00
7022;BME280;3552;42.664;23.406;2022-12-07T03:00:01;51060.44;;;-141.28;100.00
7022;BME280;3552;42.664;23.406;2022-12-07T03:02:36;51078.13;;;-141.28;100.00
7022;BME280;3552;42.664;23.406;2022-12-07T03:05:20;51021.19;;;-141.28;100.00
7022;BME280;3552;42.664;23.406;2022-12-07T03:07:58;50987.81;;;-141.28;100.00
7022;BME280;3552;42.664;23.406;2022-12-07T03:10:31;51029.03;;;-141.28;100.00
7022;BME280;3552;42.664;23.406;2022-12-07T03:13:05;51040.81;;;-141.28;100.00
7022;BME280;3552;42.664;23.406;2022-12-07T03:15:41;51062.41;;;-141.28;100.00
7022;BME280;3552;42.664;23.406;2022-12-07T03:18:11;51032.97;;;-141.28;100.00
7022;BME280;3552;42.664;23.406;2022-12-07T03:20:41;51068.28;;;-141.28;100.00
7022;BME280;3552;42.664;23.406;2022-12-07T03:23:11;51078.13;;;-141.28;100.00
7022;BME280;3552;42.664;23.406;2022-12-07T03:25:41;51115.41;;;-141.28;100.00
7022;BME280;3552;42.664;23.406;2022-12-07T03:28:11;51097.75;;;-141.28;100.00
7022;BME280;3552;42.664;23.406;2022-12-07T03:30:44;51078.13;;;-141.28;100.00
7022;BME280;3552;42.664;23.406;2022-12-07T03:33:20;51009.41;;;-141.28;100.00
7022;BME280;3552;42.664;23.406;2022-12-07T03:35:53;51019.22;;;-141.28;100.00
7022;BME280;3552;42.664;23.406;2022-12-07T03:38:28;50970.13;;;-141.28;100.00
7022;BME280;3552;42.664;23.406;2022-12-07T03:41:00;50962.28;;;-141.28;100.00
7022;BME280;3552;42.664;23.406;2022-12-07T03:43:29;51005.47;;;-141.28;100.00
7022;BME280;3552;42.664;23.406;2022-12-07T03:46:07;51052.59;;;-141.28;100.00
7022;BME280;3552;42.664;23.406;2022-12-07T03:48:46;51166.47;;;-141.28;100.00
7022;BME280;3552;42.664;23.406;2022-12-07T03:51:20;51225.34;;;-141.28;100.00
7022;BME280;3552;42.664;23.406;2022-12-07T03:53:53;51286.22;;;-141.28;100.00
7022;BME280;3552;42.664;23.406;2022-12-07T03:56:22;51335.31;;;-141.28;100.00
7022;BME280;3552;42.664;23.406;2022-12-07T03:58:53;51421.69;;;-141.28;100.00
7022;BME280;3552;42.664;23.406;2022-12-07T04:01:45;51413.84;;;-141.28;100.00
7022;BME280;3552;42.664;23.406;2022-12-07T04:04:26;51362.78;;;-141.28;100.00
7022;BME280;3552;42.664;23.406;2022-12-07T04:06:55;51453.09;;;-141.28;100.00
7022;BME280;3552;42.664;23.406;2022-12-07T04:09:22;51472.75;;;-141.28;100.00
7022;BME280;3552;42.664;23.406;2022-12-07T04:11:49;51496.31;;;-141.28;100.00
7022;BME280;3552;42.664;23.406;2022-12-07T04:14:17;51531.66;;;-141.28;100.00
7022;BME280;3552;42.664;23.406;2022-12-07T04:16:53;51468.81;;;-141.28;100.00
7022;BME280;3552;42.664;23.406;2022-12-07T04:19:24;51480.59;;;-141.28;100.00
7022;BME280;3552;42.664;23.406;2022-12-07T04:21:58;51472.75;;;-141.28;100.00
7022;BME280;3552;42.664;23.406;2022-12-07T04:24:52;51345.13;;;-141.28;100.00
7022;BME280;3552;42.664;23.406;2022-12-07T04:27:41;51260.69;;;-141.28;100.00
7022;BME280;3552;42.664;23.406;2022-12-07T04:30:12;51296.03;;;-141.28;100.00
7022;BME280;3552;42.664;23.406;2022-12-07T04:32:59;51296.03;;;-141.28;100.00
7022;BME280;3552;42.664;23.406;2022-12-07T04:35:26;51360.81;;;-141.28;100.00
7022;BME280;3552;42.664;23.406;2022-12-07T04:37:55;51091.84;;;-141.28;100.00
7022;BME280;3552;42.664;23.406;2022-12-07T04:40:26;51464.88;;;-141.28;100.00
7022;BME280;3552;42.664;23.406;2022-12-07T04:42:55;51451.16;;;-141.28;100.00
7022;BME280;3552;42.664;23.406;2022-12-07T04:45:22;51519.88;;;-141.28;100.00
7022;BME280;3552;42.664;23.406;2022-12-07T04:47:49;51539.50;;;-141.28;100.00
7022;BME280;3552;42.664;23.406;2022-12-07T04:50:19;51441.31;;;-141.28;100.00
7022;BME280;3552;42.664;23.406;2022-12-07T04:52:57;51504.16;;;-141.28;100.00
7022;BME280;3552;42.664;23.406;2022-12-07T04:55:43;51390.28;;;-141.28;100.00
7022;BME280;3552;42.664;23.406;2022-12-07T04:58:19;51362.78;;;-141.28;100.00
7022;BME280;3552;42.664;23.406;2022-12-07T05:00:46;51417.78;;;-141.28;100.00
7022;BME280;3552;42.664;23.406;2022-12-07T05:03:12;51453.09;;;-141.28;100.00
7022;BME280;3552;42.664;23.406;2022-12-07T05:05:41;51455.06;;;-141.28;100.00
7022;BME280;3552;42.664;23.406;2022-12-07T05:08:09;51517.91;;;-141.28;100.00
7022;BME280;3552;42.664;23.406;2022-12-07T05:10:38;51555.22;;;-141.28;100.00
7022;BME280;3552;42.664;23.406;2022-12-07T05:13:05;51539.50;;;-141.28;100.00
7022;BME280;3552;42.664;23.406;2022-12-07T05:15:32;51480.59;;;-141.28;100.00
7022;BME280;3552;42.664;23.406;2022-12-07T05:17:59;51582.69;;;-141.28;100.00
7022;BME280;3552;42.664;23.406;2022-12-07T05:20:28;51588.59;;;-141.28;100.00
7022;BME280;3552;42.664;23.406;2022-12-07T05:22:57;51555.22;;;-141.28;100.00
7022;BME280;3552;42.664;23.406;2022-12-07T05:25:24;51594.47;;;-141.28;100.00
7022;BME280;3552;42.664;23.406;2022-12-07T05:27:51;51676.94;;;-141.28;100.00
7022;BME280;3552;42.664;23.406;2022-12-07T05:30:19;51716.22;;;-141.28;100.00
7022;BME280;3552;42.664;23.406;2022-12-07T05:32:46;51735.84;;;-141.28;100.00
7022;BME280;3552;42.664;23.406;2022-12-07T05:35:13;51763.34;;;-141.28;100.00
7022;BME280;3552;42.664;23.406;2022-12-07T05:37:41;51782.97;;;-141.28;100.00
7022;BME280;3552;42.664;23.406;2022-12-07T05:40:12;51814.41;;;-141.28;100.00
7022;BME280;3552;42.664;23.406;2022-12-07T05:42:39;51853.69;;;-141.28;100.00
7022;BME280;3552;42.664;23.406;2022-12-07T05:45:07;51951.84;;;-141.28;100.00
7022;BME280;3552;42.664;23.406;2022-12-07T05:47:35;51983.28;;;-141.28;100.00
7022;BME280;3552;42.664;23.406;2022-12-07T05:50:04;51955.78;;;-141.28;100.00
7022;BME280;3552;42.664;23.406;2022-12-07T05:52:32;51873.31;;;-141.28;100.00
7022;BME280;3552;42.664;23.406;2022-12-07T05:54:59;51995.06;;;-141.28;100.00
7022;BME280;3552;42.664;23.406;2022-12-07T05:57:27;52002.91;;;-141.28;100.00
7022;BME280;3552;42.664;23.406;2022-12-07T05:59:54;51985.25;;;-141.28;100.00
7022;BME280;3552;42.664;23.406;2022-12-07T06:02:20;52050.03;;;-141.28;100.00
7022;BME280;3552;42.664;23.406;2022-12-07T06:04:47;52053.97;;;-141.28;100.00
7022;BME280;3552;42.664;23.406;2022-12-07T06:07:16;52069.69;;;-141.28;100.00
7022;BME280;3552;42.664;23.406;2022-12-07T06:09:57;51971.50;;;-141.28;100.00
7022;BME280;3552;42.664;23.406;2022-12-07T06:12:24;51999.00;;;-141.28;100.00
7022;BME280;3552;42.664;23.406;2022-12-07T06:15:01;51963.63;;;-141.28;100.00
7022;BME280;3552;42.664;23.406;2022-12-07T06:17:28;51924.38;;;-141.28;100.00
7022;BME280;3552;42.664;23.406;2022-12-07T06:19:54;52020.59;;;-141.28;100.00
7022;BME280;3552;42.664;23.406;2022-12-07T06:22:22;52006.84;;;-141.28;100.00
7022;BME280;3552;42.664;23.406;2022-12-07T06:24:49;51955.78;;;-141.28;100.00
7022;BME280;3552;42.664;23.406;2022-12-07T06:27:16;52071.66;;;-141.28;100.00
7022;BME280;3552;42.664;23.406;2022-12-07T06:29:43;51802.63;;;-141.28;100.00
7022;BME280;3552;42.664;23.406;2022-12-07T06:32:11;52199.28;;;-141.28;100.00
7022;BME280;3552;42.664;23.406;2022-12-07T06:34:38;52222.88;;;-141.28;100.00
7022;BME280;3552;42.664;23.406;2022-12-07T06:37:05;51704.44;;;-141.28;100.00
7022;BME280;3552;42.664;23.406;2022-12-07T06:39:32;52348.56;;;-141.28;100.00
7022;BME280;3552;42.664;23.406;2022-12-07T06:41:59;52391.75;;;-141.28;100.00
7022;BME280;3552;42.664;23.406;2022-12-07T06:44:26;52433.00;;;-141.28;100.00
7022;BME280;3552;42.664;23.406;2022-12-07T06:46:53;52360.34;;;-141.28;100.00
7022;BME280;3552;42.664;23.406;2022-12-07T06:49:22;52326.94;;;-141.28;100.00
7022;BME280;3552;42.664;23.406;2022-12-07T06:51:49;52336.78;;;-141.28;100.00
7022;BME280;3552;42.664;23.406;2022-12-07T06:54:16;51975.44;;;-141.28;100.00
7022;BME280;3552;42.664;23.406;2022-12-07T06:56:43;52325.00;;;-141.28;100.00
7022;BME280;3552;42.664;23.406;2022-12-07T06:59:10;52266.06;;;-141.28;100.00
7022;BME280;3552;42.664;23.406;2022-12-07T07:01:37;52205.19;;;-141.28;100.00
7022;BME280;3552;42.664;23.406;2022-12-07T07:04:04;52183.59;;;-141.28;100.00
7022;BME280;3552;42.664;23.406;2022-12-07T07:06:34;52142.34;;;-141.28;100.00
7022;BME280;3552;42.664;23.406;2022-12-07T07:09:01;52097.19;;;-141.28;100.00
7022;BME280;3552;42.664;23.406;2022-12-07T07:11:28;52059.88;;;-141.28;100.00
7022;BME280;3552;42.664;23.406;2022-12-07T07:13:56;51997.03;;;-141.28;100.00
7022;BME280;3552;42.664;23.406;2022-12-07T07:16:28;51881.16;;;-141.28;100.00
7022;BME280;3552;42.664;23.406;2022-12-07T07:18:55;51896.88;;;-141.28;100.00
7022;BME280;3552;42.664;23.406;2022-12-07T07:21:22;51857.59;;;-141.28;100.00
7022;BME280;3552;42.664;23.406;2022-12-07T07:23:54;51747.63;;;-141.28;100.00
7022;BME280;3552;42.664;23.406;2022-12-07T07:26:22;51629.81;;;-141.28;100.00
7022;BME280;3552;42.664;23.406;2022-12-07T07:28:49;51618.03;;;-141.28;100.00
7022;BME280;3552;42.664;23.406;2022-12-07T07:31:17;51539.50;;;-141.28;100.00
7022;BME280;3552;42.664;23.406;2022-12-07T07:33:45;51382.44;;;-141.28;100.00
7022;BME280;3552;42.664;23.406;2022-12-07T07:36:11;51409.91;;;-141.28;100.00
7022;BME280;3552;42.664;23.406;2022-12-07T07:38:38;51370.66;;;-141.28;100.00
7022;BME280;3552;42.664;23.406;2022-12-07T07:41:07;51372.59;;;-141.28;100.00
7022;BME280;3552;42.664;23.406;2022-12-07T07:43:35;51468.81;;;-141.28;100.00
7022;BME280;3552;42.664;23.406;2022-12-07T07:46:02;51396.16;;;-141.28;100.00
7022;BME280;3552;42.664;23.406;2022-12-07T07:48:30;51457.03;;;-141.28;100.00
7022;BME280;3552;42.664;23.406;2022-12-07T07:50:57;51500.22;;;-141.28;100.00
7022;BME280;3552;42.664;23.406;2022-12-07T07:53:23;51568.94;;;-141.28;100.00
7022;BME280;3552;42.664;23.406;2022-12-07T07:55:51;51590.56;;;-141.28;100.00
7022;BME280;3552;42.664;23.406;2022-12-07T07:58:21;51610.19;;;-141.28;100.00
7022;BME280;3552;42.664;23.406;2022-12-07T08:00:47;51653.38;;;-141.28;100.00
7022;BME280;3552;42.664;23.406;2022-12-07T08:03:15;51684.81;;;-141.28;100.00
7022;BME280;3552;42.664;23.406;2022-12-07T08:05:42;51441.31;;;-141.28;100.00
7022;BME280;3552;42.664;23.406;2022-12-07T08:08:09;51614.13;;;-141.28;100.00
7022;BME280;3552;42.664;23.406;2022-12-07T08:10:38;51543.44;;;-141.28;100.00
7022;BME280;3552;42.664;23.406;2022-12-07T08:13:05;51404.03;;;-141.28;100.00
7022;BME280;3552;42.664;23.406;2022-12-07T08:15:41;51213.56;;;-141.28;100.00
7022;BME280;3552;42.664;23.406;2022-12-07T08:18:09;51146.81;;;-141.28;100.00
7022;BME280;3552;42.664;23.406;2022-12-07T08:20:37;50972.09;;;-141.28;100.00
7022;BME280;3552;42.664;23.406;2022-12-07T08:23:05;50981.91;;;-141.28;100.00
7022;BME280;3552;42.664;23.406;2022-12-07T08:25:34;50917.13;;;-141.28;100.00
7022;BME280;3552;42.664;23.406;2022-12-07T08:28:01;50911.25;;;-141.28;100.00
7022;BME280;3552;42.664;23.406;2022-12-07T08:30:29;50824.88;;;-141.28;100.00
7022;BME280;3552;42.664;23.406;2022-12-07T08:32:58;50734.56;;;-141.28;100.00
7022;BME280;3552;42.664;23.406;2022-12-07T08:35:25;50793.47;;;-141.28;100.00
7022;BME280;3552;42.664;23.406;2022-12-07T08:37:53;50673.72;;;-141.28;100.00
7022;BME280;3552;42.664;23.406;2022-12-07T08:40:20;50773.81;;;-141.28;100.00
7022;BME280;3552;42.664;23.406;2022-12-07T08:42:49;50773.81;;;-141.28;100.00
7022;BME280;3552;42.664;23.406;2022-12-07T08:45:18;50754.19;;;-141.28;100.00
7022;BME280;3552;42.664;23.406;2022-12-07T08:47:48;50714.94;;;-141.28;100.00
7022;BME280;3552;42.664;23.406;2022-12-07T08:50:17;50683.53;;;-141.28;100.00
7022;BME280;3552;42.664;23.406;2022-12-07T08:52:48;50589.31;;;-141.28;100.00
7022;BME280;3552;42.664;23.406;2022-12-07T08:55:16;50608.94;;;-141.28;100.00
7022;BME280;3552;42.664;23.406;2022-12-07T08:57:43;50563.78;;;-141.28;100.00
7022;BME280;3552;42.664;23.406;2022-12-07T09:00:11;50477.44;;;-141.28;100.00
7022;BME280;3552;42.664;23.406;2022-12-07T09:02:39;50377.31;;;-141.28;100.00
7022;BME280;3552;42.664;23.406;2022-12-07T09:05:06;50322.34;;;-141.28;100.00
7022;BME280;3552;42.664;23.406;2022-12-07T09:07:35;50267.41;;;-141.28;100.00
7022;BME280;3552;42.664;23.406;2022-12-07T09:10:03;50236.00;;;-141.28;100.00
7022;BME280;3552;42.664;23.406;2022-12-07T09:12:30;50206.56;;;-141.28;100.00
7022;BME280;3552;42.664;23.406;2022-12-07T09:14:57;50128.06;;;-141.28;100.00
7022;BME280;3552;42.664;23.406;2022-12-07T09:17:26;50088.78;;;-141.28;100.00
7022;BME280;3552;42.664;23.406;2022-12-07T09:19:53;50020.09;;;-141.28;100.00
7022;BME280;3552;42.664;23.406;2022-12-07T09:22:20;49984.78;;;-141.28;100.00
7022;BME280;3552;42.664;23.406;2022-12-07T09:24:49;50012.25;;;-141.28;100.00
7022;BME280;3552;42.664;23.406;2022-12-07T09:27:15;50008.34;;;-141.28;100.00
7022;BME280;3552;42.664;23.406;2022-12-07T09:29:43;49996.56;;;-141.28;100.00
7022;BME280;3552;42.664;23.406;2022-12-07T09:32:10;49982.81;;;-141.28;100.00
7022;BME280;3552;42.664;23.406;2022-12-07T09:34:37;49902.34;;;-141.28;100.00
7022;BME280;3552;42.664;23.406;2022-12-07T09:37:04;49894.50;;;-141.28;100.00
7022;BME280;3552;42.664;23.406;2022-12-07T09:39:31;49906.28;;;-141.28;100.00
7022;BME280;3552;42.664;23.406;2022-12-07T09:42:03;49890.56;;;-141.28;100.00
7022;BME280;3552;42.664;23.406;2022-12-07T09:44:31;49867.03;;;-141.28;100.00
7022;BME280;3552;42.664;23.406;2022-12-07T09:46:58;49812.06;;;-141.28;100.00
7022;BME280;3552;42.664;23.406;2022-12-07T09:49:27;49839.56;;;-141.28;100.00
7022;BME280;3552;42.664;23.406;2022-12-07T09:52:03;49825.81;;;-141.28;100.00
7022;BME280;3552;42.664;23.406;2022-12-07T09:54:46;49814.03;;;-141.28;100.00
7022;BME280;3552;42.664;23.406;2022-12-07T09:57:15;49780.69;;;-141.28;100.00
7022;BME280;3552;42.664;23.406;2022-12-07T09:59:42;49759.09;;;-141.28;100.00
7022;BME280;3552;42.664;23.406;2022-12-07T10:02:30;49743.38;;;-141.28;100.00
7022;BME280;3552;42.664;23.406;2022-12-07T10:05:00;49717.88;;;-141.28;100.00
7022;BME280;3552;42.664;23.406;2022-12-07T10:07:27;49721.81;;;-141.28;100.00
7022;BME280;3552;42.664;23.406;2022-12-07T10:09:54;49739.47;;;-141.28;100.00
7022;BME280;3552;42.664;23.406;2022-12-07T10:12:23;49755.16;;;-141.28;100.00
7022;BME280;3552;42.664;23.406;2022-12-07T10:14:57;49772.81;;;-141.28;100.00
7022;BME280;3552;42.664;23.406;2022-12-07T10:17:32;49753.19;;;-141.28;100.00
7022;BME280;3552;42.664;23.406;2022-12-07T10:20:15;49729.66;;;-141.28;100.00
7022;BME280;3552;42.664;23.406;2022-12-07T10:23:04;49700.22;;;-141.28;100.00
7022;BME280;3552;42.664;23.406;2022-12-07T10:25:34;49686.47;;;-141.28;100.00
7022;BME280;3552;42.664;23.406;2022-12-07T10:28:12;49729.66;;;-141.28;100.00
7022;BME280;3552;42.664;23.406;2022-12-07T10:30:54;49757.13;;;-141.28;100.00
7022;BME280;3552;42.664;23.406;2022-12-07T10:33:29;49823.84;;;-141.28;100.00
7022;BME280;3552;42.664;23.406;2022-12-07T10:35:58;49823.84;;;-141.28;100.00
7022;BME280;3552;42.664;23.406;2022-12-07T10:38:27;49849.38;;;-141.28;100.00
7022;BME280;3552;42.664;23.406;2022-12-07T10:41:13;49876.84;;;-141.28;100.00
7022;BME280;3552;42.664;23.406;2022-12-07T10:43:51;49833.66;;;-141.28;100.00
7022;BME280;3552;42.664;23.406;2022-12-07T10:46:43;49766.94;;;-141.28;100.00
7022;BME280;3552;42.664;23.406;2022-12-07T10:49:35;49757.13;;;-141.28;100.00
7022;BME280;3552;42.664;23.406;2022-12-07T10:52:09;49723.75;;;-141.28;100.00
7022;BME280;3552;42.664;23.406;2022-12-07T10:54:42;49694.31;;;-141.28;100.00
7022;BME280;3552;42.664;23.406;2022-12-07T10:57:26;49682.56;;;-141.28;100.00
7022;BME280;3552;42.664;23.406;2022-12-07T11:00:08;49702.19;;;-141.28;100.00
7022;BME280;3552;42.664;23.406;2022-12-07T11:02:44;49686.47;;;-141.28;100.00
7022;BME280;3552;42.664;23.406;2022-12-07T11:05:22;49713.94;;;-141.28;100.00
7022;BME280;3552;42.664;23.406;2022-12-07T11:08:00;49713.94;;;-141.28;100.00
7022;BME280;3552;42.664;23.406;2022-12-07T11:10:35;49678.63;;;-141.28;100.00
7022;BME280;3552;42.664;23.406;2022-12-07T11:13:19;49688.44;;;-141.28;100.00
7022;BME280;3552;42.664;23.406;2022-12-07T11:16:01;49607.97;;;-141.28;100.00
7022;BME280;3552;42.664;23.406;2022-12-07T11:18:35;49651.16;;;-141.28;100.00
7022;BME280;3552;42.664;23.406;2022-12-07T11:21:07;49645.28;;;-141.28;100.00
7022;BME280;3552;42.664;23.406;2022-12-07T11:23:46;49662.94;;;-141.28;100.00
7022;BME280;3552;42.664;23.406;2022-12-07T11:26:25;49609.94;;;-141.28;100.00
7022;BME280;3552;42.664;23.406;2022-12-07T11:29:07;49580.50;;;-141.28;100.00
7022;BME280;3552;42.664;23.406;2022-12-07T11:31:52;49596.22;;;-141.28;100.00
7022;BME280;3552;42.664;23.406;2022-12-07T11:34:28;49611.91;;;-141.28;100.00
7022;BME280;3552;42.664;23.406;2022-12-07T11:37:01;49613.88;;;-141.28;100.00
7022;BME280;3552;42.664;23.406;2022-12-07T11:39:33;49676.66;;;-141.28;100.00
7022;BME280;3552;42.664;23.406;2022-12-07T11:42:05;49621.72;;;-141.28;100.00
7022;BME280;3552;42.664;23.406;2022-12-07T11:44:39;49676.66;;;-141.28;100.00
7022;BME280;3552;42.664;23.406;2022-12-07T11:47:17;49662.94;;;-141.28;100.00
7022;BME280;3552;42.664;23.406;2022-12-07T11:49:53;49655.09;;;-141.28;100.00
7022;BME280;3552;42.664;23.406;2022-12-07T11:52:27;49611.91;;;-141.28;100.00
7022;BME280;3552;42.664;23.406;2022-12-07T11:54:57;49572.66;;;-141.28;100.00
7022;BME280;3552;42.664;23.406;2022-12-07T11:57:31;49560.88;;;-141.28;100.00
7022;BME280;3552;42.664;23.406;2022-12-07T12:00:03;49502.03;;;-141.28;100.00
7022;BME280;3552;42.664;23.406;2022-12-07T12:02:36;49529.50;;;-141.28;100.00
7022;BME280;3552;42.664;23.406;2022-12-07T12:05:13;49498.09;;;-141.28;100.00
7022;BME280;3552;42.664;23.406;2022-12-07T12:07:42;49505.94;;;-141.28;100.00
7022;BME280;3552;42.664;23.406;2022-12-07T12:10:18;49494.16;;;-141.28;100.00
7022;BME280;3552;42.664;23.406;2022-12-07T12:15:55;49494.16;;;-141.28;100.00
7022;BME280;3552;42.664;23.406;2022-12-07T12:18:40;49478.47;;;-141.28;100.00
7022;BME280;3552;42.664;23.406;2022-12-07T12:21:15;49445.13;;;-141.28;100.00
7022;BME280;3552;42.664;23.406;2022-12-07T12:23:46;49439.22;;;-141.28;100.00
7022;BME280;3552;42.664;23.406;2022-12-07T12:26:18;49474.53;;;-141.28;100.00
7022;BME280;3552;42.664;23.406;2022-12-07T12:28:53;49498.09;;;-141.28;100.00
7022;BME280;3552;42.664;23.406;2022-12-07T12:31:36;49494.16;;;-141.28;100.00
7022;BME280;3552;42.664;23.406;2022-12-07T12:34:30;49519.69;;;-141.28;100.00
7022;BME280;3552;42.664;23.406;2022-12-07T12:36:57;49517.72;;;-141.28;100.00
7022;BME280;3552;42.664;23.406;2022-12-07T12:39:25;49529.50;;;-141.28;100.00
7022;BME280;3552;42.664;23.406;2022-12-07T12:41:59;49578.56;;;-141.28;100.00
7022;BME280;3552;42.664;23.406;2022-12-07T12:44:40;49607.97;;;-141.28;100.00
7022;BME280;3552;42.664;23.406;2022-12-07T12:50:25;49804.22;;;-141.28;100.00
7022;BME280;3552;42.664;23.406;2022-12-07T12:52:56;50391.06;;;-141.28;100.00
7022;BME280;3552;42.664;23.406;2022-12-07T12:55:45;51343.16;;;-141.28;100.00
7022;BME280;3552;42.664;23.406;2022-12-07T12:58:30;52150.19;;;-141.28;100.00
7022;BME280;3552;42.664;23.406;2022-12-07T13:04:29;51678.91;;;-141.28;100.00
7022;BME280;3552;42.664;23.406;2022-12-07T13:07:07;51036.88;;;-141.28;100.00
7022;BME280;3552;42.664;23.406;2022-12-07T13:09:35;50467.59;;;-141.28;100.00
7022;BME280;3552;42.664;23.406;2022-12-07T13:12:05;50200.66;;;-141.28;100.00
7022;BME280;3552;42.664;23.406;2022-12-07T13:14:53;49019.31;;;-141.28;100.00
7022;BME280;3552;42.664;23.406;2022-12-07T13:17:57;48972.25;;;-141.28;100.00
7022;BME280;3552;42.664;23.406;2022-12-07T13:20:44;49078.19;;;-141.28;100.00